sensor_id;sensor_type;location;lat;lon;timestamp;temperature;humidity
74661;SHT31;63191;39.566;2.654;2023-05-14T00:00:29;15.26;68.13
74661;SHT31;63191;39.566;2.654;2023-05-14T00:02:55;15.27;68.19
74661;SHT31;63191;39.566;2.654;2023-05-14T00:05:22;15.26;68.25
74661;SHT31;63191;39.566;2.654;2023-05-14T00:07:48;15.26;68.30
74661;SHT31;63191;39.566;2.654;2023-05-14T00:10:15;15.26;68.30
74661;SHT31;63191;39.566;2.654;2023-05-14T00:12:43;15.25;68.31
74661;SHT31;63191;39.566;2.654;2023-05-14T00:15:08;15.24;68.35
74661;SHT31;63191;39.566;2.654;2023-05-14T00:17:35;15.22;68.40
74661;SHT31;63191;39.566;2.654;2023-05-14T00:20:01;15.23;68.43
74661;SHT31;63191;39.566;2.654;2023-05-14T00:22:31;15.22;68.41
74661;SHT31;63191;39.566;2.654;2023-05-14T00:24:57;15.21;68.50
74661;SHT31;63191;39.566;2.654;2023-05-14T00:27:23;15.20;68.51
74661;SHT31;63191;39.566;2.654;2023-05-14T00:29:50;15.20;68.60
74661;SHT31;63191;39.566;2.654;2023-05-14T00:32:16;15.22;68.63
74661;SHT31;63191;39.566;2.654;2023-05-14T00:34:42;15.22;68.70
74661;SHT31;63191;39.566;2.654;2023-05-14T00:37:07;15.27;68.70
74661;SHT31;63191;39.566;2.654;2023-05-14T00:39:33;15.30;68.80
74661;SHT31;63191;39.566;2.654;2023-05-14T00:41:59;15.32;68.90
74661;SHT31;63191;39.566;2.654;2023-05-14T00:44:25;15.36;69.01
74661;SHT31;63191;39.566;2.654;2023-05-14T00:46:51;15.40;69.13
74661;SHT31;63191;39.566;2.654;2023-05-14T00:49:17;15.44;69.21
74661;SHT31;63191;39.566;2.654;2023-05-14T00:51:43;15.43;69.19
74661;SHT31;63191;39.566;2.654;2023-05-14T00:54:12;15.38;69.08
74661;SHT31;63191;39.566;2.654;2023-05-14T00:56:39;15.32;69.04
74661;SHT31;63191;39.566;2.654;2023-05-14T00:59:10;15.25;69.15
74661;SHT31;63191;39.566;2.654;2023-05-14T01:01:37;15.22;69.27
74661;SHT31;63191;39.566;2.654;2023-05-14T01:04:03;15.19;69.40
74661;SHT31;63191;39.566;2.654;2023-05-14T01:09:30;15.15;69.52
74661;SHT31;63191;39.566;2.654;2023-05-14T01:12:24;15.11;69.62
74661;SHT31;63191;39.566;2.654;2023-05-14T01:15:00;15.05;69.55
74661;SHT31;63191;39.566;2.654;2023-05-14T01:17:31;14.97;69.59
74661;SHT31;63191;39.566;2.654;2023-05-14T01:20:03;14.89;69.68
74661;SHT31;63191;39.566;2.654;2023-05-14T01:22:29;14.85;69.86
74661;SHT31;63191;39.566;2.654;2023-05-14T01:24:55;14.81;69.93
74661;SHT31;63191;39.566;2.654;2023-05-14T01:27:24;14.80;70.08
74661;SHT31;63191;39.566;2.654;2023-05-14T01:32:45;14.77;70.19
74661;SHT31;63191;39.566;2.654;2023-05-14T01:35:15;14.74;70.25
74661;SHT31;63191;39.566;2.654;2023-05-14T01:37:42;14.71;70.30
74661;SHT31;63191;39.566;2.654;2023-05-14T01:40:09;14.69;70.33
74661;SHT31;63191;39.566;2.654;2023-05-14T01:42:36;14.67;70.41
74661;SHT31;63191;39.566;2.654;2023-05-14T01:45:02;14.67;70.43
74661;SHT31;63191;39.566;2.654;2023-05-14T01:47:29;14.69;70.48
74661;SHT31;63191;39.566;2.654;2023-05-14T01:49:55;14.71;70.54
74661;SHT31;63191;39.566;2.654;2023-05-14T01:52:21;14.73;70.60
74661;SHT31;63191;39.566;2.654;2023-05-14T01:54:48;14.74;70.63
74661;SHT31;63191;39.566;2.654;2023-05-14T01:57:14;14.76;70.60
74661;SHT31;63191;39.566;2.654;2023-05-14T01:59:40;14.77;70.60
74661;SHT31;63191;39.566;2.654;2023-05-14T02:02:05;14.78;70.51
74661;SHT31;63191;39.566;2.654;2023-05-14T02:04:31;14.79;70.46
74661;SHT31;63191;39.566;2.654;2023-05-14T02:06:57;14.80;70.40
74661;SHT31;63191;39.566;2.654;2023-05-14T02:09:23;14.80;70.40
74661;SHT31;63191;39.566;2.654;2023-05-14T02:11:48;14.82;70.32
74661;SHT31;63191;39.566;2.654;2023-05-14T02:14:14;14.84;70.30
74661;SHT31;63191;39.566;2.654;2023-05-14T02:16:40;14.88;70.26
74661;SHT31;63191;39.566;2.654;2023-05-14T02:19:06;14.91;70.21
74661;SHT31;63191;39.566;2.654;2023-05-14T02:21:32;14.91;70.21
74661;SHT31;63191;39.566;2.654;2023-05-14T02:23:57;14.91;70.14
74661;SHT31;63191;39.566;2.654;2023-05-14T02:26:23;14.91;70.10
74661;SHT31;63191;39.566;2.654;2023-05-14T02:28:48;14.89;70.02
74661;SHT31;63191;39.566;2.654;2023-05-14T02:31:14;14.86;70.00
74661;SHT31;63191;39.566;2.654;2023-05-14T02:33:43;14.83;69.97
74661;SHT31;63191;39.566;2.654;2023-05-14T02:36:08;14.80;69.98
74661;SHT31;63191;39.566;2.654;2023-05-14T02:38:34;14.75;70.00
74661;SHT31;63191;39.566;2.654;2023-05-14T02:41:00;14.71;70.03
74661;SHT31;63191;39.566;2.654;2023-05-14T02:45:51;14.67;70.02
74661;SHT31;63191;39.566;2.654;2023-05-14T02:48:16;14.65;70.03
74661;SHT31;63191;39.566;2.654;2023-05-14T02:50:42;14.62;70.09
74661;SHT31;63191;39.566;2.654;2023-05-14T02:53:08;14.60;70.06
74661;SHT31;63191;39.566;2.654;2023-05-14T02:55:34;14.56;70.04
74661;SHT31;63191;39.566;2.654;2023-05-14T02:58:00;14.54;70.05
74661;SHT31;63191;39.566;2.654;2023-05-14T03:00:26;14.50;70.07
74661;SHT31;63191;39.566;2.654;2023-05-14T03:02:51;14.49;70.10
74661;SHT31;63191;39.566;2.654;2023-05-14T03:05:17;14.47;70.08
74661;SHT31;63191;39.566;2.654;2023-05-14T03:07:44;14.45;70.10
74661;SHT31;63191;39.566;2.654;2023-05-14T03:10:11;14.45;70.10
74661;SHT31;63191;39.566;2.654;2023-05-14T03:12:37;14.47;70.10
74661;SHT31;63191;39.566;2.654;2023-05-14T03:15:03;14.50;70.06
74661;SHT31;63191;39.566;2.654;2023-05-14T03:17:29;14.54;70.06
74661;SHT31;63191;39.566;2.654;2023-05-14T03:19:54;14.56;70.03
74661;SHT31;63191;39.566;2.654;2023-05-14T03:22:20;14.58;70.00
74661;SHT31;63191;39.566;2.654;2023-05-14T03:24:45;14.59;70.00
74661;SHT31;63191;39.566;2.654;2023-05-14T03:27:11;14.60;69.98
74661;SHT31;63191;39.566;2.654;2023-05-14T03:29:37;14.60;70.00
74661;SHT31;63191;39.566;2.654;2023-05-14T03:32:03;14.60;70.00
74661;SHT31;63191;39.566;2.654;2023-05-14T03:34:30;14.61;69.90
74661;SHT31;63191;39.566;2.654;2023-05-14T03:36:56;14.61;69.90
74661;SHT31;63191;39.566;2.654;2023-05-14T03:39:22;14.60;69.93
74661;SHT31;63191;39.566;2.654;2023-05-14T03:41:47;14.58;69.91
74661;SHT31;63191;39.566;2.654;2023-05-14T03:44:13;14.56;69.94
74661;SHT31;63191;39.566;2.654;2023-05-14T03:46:39;14.56;70.04
74661;SHT31;63191;39.566;2.654;2023-05-14T03:49:05;14.56;70.10
74661;SHT31;63191;39.566;2.654;2023-05-14T03:51:31;14.57;70.10
74661;SHT31;63191;39.566;2.654;2023-05-14T03:53:57;14.59;70.10
74661;SHT31;63191;39.566;2.654;2023-05-14T03:56:23;14.60;70.11
74661;SHT31;63191;39.566;2.654;2023-05-14T03:58:50;14.60;70.15
74661;SHT31;63191;39.566;2.654;2023-05-14T04:01:16;14.58;70.13
74661;SHT31;63191;39.566;2.654;2023-05-14T04:03:42;14.58;70.25
74661;SHT31;63191;39.566;2.654;2023-05-14T04:06:07;14.58;70.34
74661;SHT31;63191;39.566;2.654;2023-05-14T04:08:33;14.57;70.44
74661;SHT31;63191;39.566;2.654;2023-05-14T04:10:59;14.57;70.54
74661;SHT31;63191;39.566;2.654;2023-05-14T04:13:25;14.58;70.64
74661;SHT31;63191;39.566;2.654;2023-05-14T04:15:50;14.60;70.70
74661;SHT31;63191;39.566;2.654;2023-05-14T04:18:16;14.61;70.76
74661;SHT31;63191;39.566;2.654;2023-05-14T04:20:42;14.62;70.84
74661;SHT31;63191;39.566;2.654;2023-05-14T04:23:08;14.65;70.91
74661;SHT31;63191;39.566;2.654;2023-05-14T04:25:34;14.67;70.96
74661;SHT31;63191;39.566;2.654;2023-05-14T04:27:59;14.69;71.02
74661;SHT31;63191;39.566;2.654;2023-05-14T04:30:25;14.70;71.10
74661;SHT31;63191;39.566;2.654;2023-05-14T04:32:51;14.69;71.12
74661;SHT31;63191;39.566;2.654;2023-05-14T04:35:16;14.69;71.10
74661;SHT31;63191;39.566;2.654;2023-05-14T04:37:42;14.66;71.03
74661;SHT31;63191;39.566;2.654;2023-05-14T04:40:08;14.63;71.00
74661;SHT31;63191;39.566;2.654;2023-05-14T04:42:35;14.59;71.01
74661;SHT31;63191;39.566;2.654;2023-05-14T04:45:01;14.56;71.10
74661;SHT31;63191;39.566;2.654;2023-05-14T04:47:29;14.55;71.14
74661;SHT31;63191;39.566;2.654;2023-05-14T04:49:55;14.53;71.20
74661;SHT31;63191;39.566;2.654;2023-05-14T04:52:25;14.53;71.20
74661;SHT31;63191;39.566;2.654;2023-05-14T04:54:50;14.51;71.27
74661;SHT31;63191;39.566;2.654;2023-05-14T04:57:16;14.49;71.36
74661;SHT31;63191;39.566;2.654;2023-05-14T04:59:42;14.47;71.43
74661;SHT31;63191;39.566;2.654;2023-05-14T05:02:09;14.46;71.52
74661;SHT31;63191;39.566;2.654;2023-05-14T05:04:35;14.46;71.60
74661;SHT31;63191;39.566;2.654;2023-05-14T05:07:00;14.45;71.60
74661;SHT31;63191;39.566;2.654;2023-05-14T05:09:26;14.45;71.69
74661;SHT31;63191;39.566;2.654;2023-05-14T05:11:52;14.49;71.70
74661;SHT31;63191;39.566;2.654;2023-05-14T05:14:17;14.53;71.70
74661;SHT31;63191;39.566;2.654;2023-05-14T05:16:43;14.58;71.76
74661;SHT31;63191;39.566;2.654;2023-05-14T05:19:09;14.64;71.80
74661;SHT31;63191;39.566;2.654;2023-05-14T05:21:34;14.70;71.78
74661;SHT31;63191;39.566;2.654;2023-05-14T05:24:04;14.77;71.65
74661;SHT31;63191;39.566;2.654;2023-05-14T05:26:33;14.85;71.51
74661;SHT31;63191;39.566;2.654;2023-05-14T05:29:03;14.93;71.32
74661;SHT31;63191;39.566;2.654;2023-05-14T05:31:29;15.01;71.06
74661;SHT31;63191;39.566;2.654;2023-05-14T05:33:59;15.07;70.70
74661;SHT31;63191;39.566;2.654;2023-05-14T05:36:26;15.17;70.54
74661;SHT31;63191;39.566;2.654;2023-05-14T05:38:52;15.27;70.40
74661;SHT31;63191;39.566;2.654;2023-05-14T05:41:20;15.36;70.24
74661;SHT31;63191;39.566;2.654;2023-05-14T05:43:47;15.44;70.08
74661;SHT31;63191;39.566;2.654;2023-05-14T05:46:13;15.53;69.96
74661;SHT31;63191;39.566;2.654;2023-05-14T05:48:38;15.60;69.73
74661;SHT31;63191;39.566;2.654;2023-05-14T05:51:05;15.69;69.53
74661;SHT31;63191;39.566;2.654;2023-05-14T05:53:32;15.81;69.28
74661;SHT31;63191;39.566;2.654;2023-05-14T05:56:00;16.18;68.70
74661;SHT31;63191;39.566;2.654;2023-05-14T05:58:27;16.41;68.35
74661;SHT31;63191;39.566;2.654;2023-05-14T06:00:53;16.53;67.91
74661;SHT31;63191;39.566;2.654;2023-05-14T06:03:21;16.60;67.41
74661;SHT31;63191;39.566;2.654;2023-05-14T06:05:47;16.75;67.10
74661;SHT31;63191;39.566;2.654;2023-05-14T06:08:13;17.17;66.64
74661;SHT31;63191;39.566;2.654;2023-05-14T06:10:42;18.43;65.31
74661;SHT31;63191;39.566;2.654;2023-05-14T06:13:07;20.11;63.44
74661;SHT31;63191;39.566;2.654;2023-05-14T06:15:33;21.32;61.38
74661;SHT31;63191;39.566;2.654;2023-05-14T06:17:59;21.81;59.78
74661;SHT31;63191;39.566;2.654;2023-05-14T06:20:25;22.94;57.63
74661;SHT31;63191;39.566;2.654;2023-05-14T06:22:53;24.41;54.70
74661;SHT31;63191;39.566;2.654;2023-05-14T06:25:24;25.74;51.92
74661;SHT31;63191;39.566;2.654;2023-05-14T06:27:50;26.85;49.10
74661;SHT31;63191;39.566;2.654;2023-05-14T06:30:25;27.75;46.53
74661;SHT31;63191;39.566;2.654;2023-05-14T06:33:00;28.60;44.24
74661;SHT31;63191;39.566;2.654;2023-05-14T06:35:26;29.17;42.29
74661;SHT31;63191;39.566;2.654;2023-05-14T06:43:37;27.50;42.23
74661;SHT31;63191;39.566;2.654;2023-05-14T06:46:12;26.67;41.52
74661;SHT31;63191;39.566;2.654;2023-05-14T06:48:43;25.83;42.63
74661;SHT31;63191;39.566;2.654;2023-05-14T06:53:37;24.47;44.18
74661;SHT31;63191;39.566;2.654;2023-05-14T06:56:03;23.79;44.38
74661;SHT31;63191;39.566;2.654;2023-05-14T06:58:29;23.22;45.49
74661;SHT31;63191;39.566;2.654;2023-05-14T07:00:54;22.78;46.58
74661;SHT31;63191;39.566;2.654;2023-05-14T07:03:21;22.42;47.51
74661;SHT31;63191;39.566;2.654;2023-05-14T07:05:47;22.10;48.07
74661;SHT31;63191;39.566;2.654;2023-05-14T07:08:13;21.87;48.44
74661;SHT31;63191;39.566;2.654;2023-05-14T07:10:39;21.68;48.93
74661;SHT31;63191;39.566;2.654;2023-05-14T07:13:05;21.54;49.10
74661;SHT31;63191;39.566;2.654;2023-05-14T07:15:33;21.37;49.32
74661;SHT31;63191;39.566;2.654;2023-05-14T07:18:07;21.21;49.62
74661;SHT31;63191;39.566;2.654;2023-05-14T07:20:33;21.06;50.02
74661;SHT31;63191;39.566;2.654;2023-05-14T07:23:01;20.98;50.47
74661;SHT31;63191;39.566;2.654;2023-05-14T07:25:34;20.95;50.87
74661;SHT31;63191;39.566;2.654;2023-05-14T07:28:00;20.91;51.24
74661;SHT31;63191;39.566;2.654;2023-05-14T07:30:25;20.87;51.52
74661;SHT31;63191;39.566;2.654;2023-05-14T07:32:51;20.85;51.76
74661;SHT31;63191;39.566;2.654;2023-05-14T07:35:20;20.86;51.99
74661;SHT31;63191;39.566;2.654;2023-05-14T07:37:46;20.79;51.86
74661;SHT31;63191;39.566;2.654;2023-05-14T07:40:21;20.72;52.09
74661;SHT31;63191;39.566;2.654;2023-05-14T07:42:51;20.65;52.28
74661;SHT31;63191;39.566;2.654;2023-05-14T07:45:17;20.62;52.70
74661;SHT31;63191;39.566;2.654;2023-05-14T07:47:43;20.63;52.94
74661;SHT31;63191;39.566;2.654;2023-05-14T07:52:43;20.86;53.10
74661;SHT31;63191;39.566;2.654;2023-05-14T07:55:09;21.04;52.77
74661;SHT31;63191;39.566;2.654;2023-05-14T07:57:36;21.24;52.68
74661;SHT31;63191;39.566;2.654;2023-05-14T08:00:06;21.46;52.44
74661;SHT31;63191;39.566;2.654;2023-05-14T08:02:32;21.73;52.50
74661;SHT31;63191;39.566;2.654;2023-05-14T08:05:01;22.07;52.20
74661;SHT31;63191;39.566;2.654;2023-05-14T08:07:28;22.36;51.50
74661;SHT31;63191;39.566;2.654;2023-05-14T08:12:25;22.70;50.68
74661;SHT31;63191;39.566;2.654;2023-05-14T08:14:52;22.81;50.62
74661;SHT31;63191;39.566;2.654;2023-05-14T08:17:18;22.87;50.30
74661;SHT31;63191;39.566;2.654;2023-05-14T08:19:52;22.92;50.11
74661;SHT31;63191;39.566;2.654;2023-05-14T08:22:21;22.98;49.60
74661;SHT31;63191;39.566;2.654;2023-05-14T08:25:15;23.35;48.91
74661;SHT31;63191;39.566;2.654;2023-05-14T08:28:01;24.52;47.57
74661;SHT31;63191;39.566;2.654;2023-05-14T08:30:55;25.12;46.69
74661;SHT31;63191;39.566;2.654;2023-05-14T08:36:02;24.99;45.68
74661;SHT31;63191;39.566;2.654;2023-05-14T08:38:34;24.97;45.67
74661;SHT31;63191;39.566;2.654;2023-05-14T08:41:23;25.14;45.47
74661;SHT31;63191;39.566;2.654;2023-05-14T08:51:02;25.53;44.25
74661;SHT31;63191;39.566;2.654;2023-05-14T08:53:29;25.60;44.65
74661;SHT31;63191;39.566;2.654;2023-05-14T08:58:20;26.51;43.20
74661;SHT31;63191;39.566;2.654;2023-05-14T09:00:46;26.85;42.79
74661;SHT31;63191;39.566;2.654;2023-05-14T09:03:12;26.83;42.36
74661;SHT31;63191;39.566;2.654;2023-05-14T09:05:39;26.70;42.31
74661;SHT31;63191;39.566;2.654;2023-05-14T09:08:05;26.58;42.32
74661;SHT31;63191;39.566;2.654;2023-05-14T09:10:31;26.40;42.19
74661;SHT31;63191;39.566;2.654;2023-05-14T09:15:22;26.57;41.63
74661;SHT31;63191;39.566;2.654;2023-05-14T09:18:05;26.44;41.91
74661;SHT31;63191;39.566;2.654;2023-05-14T09:20:31;26.06;42.36
74661;SHT31;63191;39.566;2.654;2023-05-14T09:22:57;25.65;43.27
74661;SHT31;63191;39.566;2.654;2023-05-14T09:25:29;25.39;44.12
74661;SHT31;63191;39.566;2.654;2023-05-14T09:27:56;25.05;44.06
74661;SHT31;63191;39.566;2.654;2023-05-14T09:30:30;24.56;44.33
74661;SHT31;63191;39.566;2.654;2023-05-14T09:32:58;24.37;45.67
74661;SHT31;63191;39.566;2.654;2023-05-14T09:35:24;24.80;46.32
74661;SHT31;63191;39.566;2.654;2023-05-14T09:37:50;25.83;44.67
74661;SHT31;63191;39.566;2.654;2023-05-14T09:40:18;26.32;43.67
74661;SHT31;63191;39.566;2.654;2023-05-14T09:42:51;26.46;43.16
74661;SHT31;63191;39.566;2.654;2023-05-14T09:45:17;26.01;44.30
74661;SHT31;63191;39.566;2.654;2023-05-14T09:47:45;25.71;44.94
74661;SHT31;63191;39.566;2.654;2023-05-14T09:50:12;25.55;44.89
74661;SHT31;63191;39.566;2.654;2023-05-14T09:52:51;25.58;45.49
74661;SHT31;63191;39.566;2.654;2023-05-14T09:55:20;25.64;45.22
74661;SHT31;63191;39.566;2.654;2023-05-14T09:57:47;25.63;45.31
74661;SHT31;63191;39.566;2.654;2023-05-14T10:00:13;26.15;44.04
74661;SHT31;63191;39.566;2.654;2023-05-14T10:02:40;26.92;42.43
74661;SHT31;63191;39.566;2.654;2023-05-14T10:05:09;27.25;41.40
74661;SHT31;63191;39.566;2.654;2023-05-14T10:10:05;26.56;43.11
74661;SHT31;63191;39.566;2.654;2023-05-14T10:12:33;26.14;44.48
74661;SHT31;63191;39.566;2.654;2023-05-14T10:15:05;25.93;44.79
74661;SHT31;63191;39.566;2.654;2023-05-14T10:17:40;25.72;44.78
74661;SHT31;63191;39.566;2.654;2023-05-14T10:20:14;25.59;45.29
74661;SHT31;63191;39.566;2.654;2023-05-14T10:22:41;25.70;45.97
74661;SHT31;63191;39.566;2.654;2023-05-14T10:25:07;26.06;46.10
74661;SHT31;63191;39.566;2.654;2023-05-14T10:27:33;26.67;43.87
74661;SHT31;63191;39.566;2.654;2023-05-14T10:29:59;27.20;42.72
74661;SHT31;63191;39.566;2.654;2023-05-14T10:35:17;27.02;41.01
74661;SHT31;63191;39.566;2.654;2023-05-14T10:37:46;26.78;41.51
74661;SHT31;63191;39.566;2.654;2023-05-14T10:40:16;26.53;42.75
74661;SHT31;63191;39.566;2.654;2023-05-14T10:42:57;26.36;43.62
74661;SHT31;63191;39.566;2.654;2023-05-14T10:45:23;26.09;43.89
74661;SHT31;63191;39.566;2.654;2023-05-14T10:47:55;25.81;44.72
74661;SHT31;63191;39.566;2.654;2023-05-14T10:50:27;25.67;45.38
74661;SHT31;63191;39.566;2.654;2023-05-14T10:52:53;25.76;46.01
74661;SHT31;63191;39.566;2.654;2023-05-14T10:55:21;26.13;45.41
74661;SHT31;63191;39.566;2.654;2023-05-14T10:57:46;26.72;43.86
74661;SHT31;63191;39.566;2.654;2023-05-14T11:03:05;27.49;41.97
74661;SHT31;63191;39.566;2.654;2023-05-14T11:05:32;27.65;40.86
74661;SHT31;63191;39.566;2.654;2023-05-14T11:08:01;27.58;40.36
74661;SHT31;63191;39.566;2.654;2023-05-14T11:10:32;27.39;40.16
74661;SHT31;63191;39.566;2.654;2023-05-14T11:13:32;27.31;39.42
74661;SHT31;63191;39.566;2.654;2023-05-14T11:15:59;27.23;40.39
74661;SHT31;63191;39.566;2.654;2023-05-14T11:18:42;27.17;40.62
74661;SHT31;63191;39.566;2.654;2023-05-14T11:21:10;27.00;40.79
74661;SHT31;63191;39.566;2.654;2023-05-14T11:23:37;26.76;40.69
74661;SHT31;63191;39.566;2.654;2023-05-14T11:26:02;26.44;41.16
74661;SHT31;63191;39.566;2.654;2023-05-14T11:28:28;26.21;40.14
74661;SHT31;63191;39.566;2.654;2023-05-14T11:30:54;26.68;40.89
74661;SHT31;63191;39.566;2.654;2023-05-14T11:33:20;27.50;39.45
74661;SHT31;63191;39.566;2.654;2023-05-14T11:35:46;28.35;37.52
74661;SHT31;63191;39.566;2.654;2023-05-14T11:38:19;28.84;35.97
74661;SHT31;63191;39.566;2.654;2023-05-14T11:40:54;29.00;35.77
74661;SHT31;63191;39.566;2.654;2023-05-14T11:43:24;28.73;35.99
74661;SHT31;63191;39.566;2.654;2023-05-14T11:45:56;28.23;37.01
74661;SHT31;63191;39.566;2.654;2023-05-14T11:48:22;27.81;37.62
74661;SHT31;63191;39.566;2.654;2023-05-14T11:50:49;27.45;38.88
74661;SHT31;63191;39.566;2.654;2023-05-14T11:53:23;27.19;38.78
74661;SHT31;63191;39.566;2.654;2023-05-14T11:55:51;26.92;37.97
74661;SHT31;63191;39.566;2.654;2023-05-14T11:58:18;26.53;37.65
74661;SHT31;63191;39.566;2.654;2023-05-14T12:00:49;26.26;39.31
74661;SHT31;63191;39.566;2.654;2023-05-14T12:03:15;26.13;41.08
74661;SHT31;63191;39.566;2.654;2023-05-14T12:05:54;26.05;41.96
74661;SHT31;63191;39.566;2.654;2023-05-14T12:08:27;26.09;41.85
74661;SHT31;63191;39.566;2.654;2023-05-14T12:10:56;26.09;41.31
74661;SHT31;63191;39.566;2.654;2023-05-14T12:13:29;26.03;41.37
74661;SHT31;63191;39.566;2.654;2023-05-14T12:16:00;25.91;40.62
74661;SHT31;63191;39.566;2.654;2023-05-14T12:18:30;25.66;40.41
74661;SHT31;63191;39.566;2.654;2023-05-14T12:21:03;25.37;40.70
74661;SHT31;63191;39.566;2.654;2023-05-14T12:23:32;25.10;42.53
74661;SHT31;63191;39.566;2.654;2023-05-14T12:28:23;25.00;42.29
74661;SHT31;63191;39.566;2.654;2023-05-14T12:30:54;24.85;41.71
74661;SHT31;63191;39.566;2.654;2023-05-14T12:33:27;24.50;43.28
74661;SHT31;63191;39.566;2.654;2023-05-14T12:35:53;24.06;44.26
74661;SHT31;63191;39.566;2.654;2023-05-14T12:46:44;21.85;56.42
74661;SHT31;63191;39.566;2.654;2023-05-14T12:49:24;20.00;67.87
74661;SHT31;63191;39.566;2.654;2023-05-14T12:51:50;18.92;71.72
74661;SHT31;63191;39.566;2.654;2023-05-14T12:54:15;18.30;73.38
74661;SHT31;63191;39.566;2.654;2023-05-14T12:56:41;17.98;73.98
74661;SHT31;63191;39.566;2.654;2023-05-14T12:59:07;17.80;73.78
74661;SHT31;63191;39.566;2.654;2023-05-14T13:01:33;17.77;74.26
74661;SHT31;63191;39.566;2.654;2023-05-14T13:03:59;17.67;75.60
74661;SHT31;63191;39.566;2.654;2023-05-14T13:06:25;17.47;76.68
74661;SHT31;63191;39.566;2.654;2023-05-14T13:08:50;17.23;77.88
74661;SHT31;63191;39.566;2.654;2023-05-14T13:11:16;16.68;83.56
74661;SHT31;63191;39.566;2.654;2023-05-14T13:13:42;16.36;89.06
74661;SHT31;63191;39.566;2.654;2023-05-14T13:16:07;16.23;90.69
74661;SHT31;63191;39.566;2.654;2023-05-14T13:18:33;16.24;91.52
74661;SHT31;63191;39.566;2.654;2023-05-14T13:20:59;16.28;92.02
74661;SHT31;63191;39.566;2.654;2023-05-14T13:23:28;16.25;92.24
74661;SHT31;63191;39.566;2.654;2023-05-14T13:25:53;16.17;92.40
74661;SHT31;63191;39.566;2.654;2023-05-14T13:28:19;16.20;92.58
74661;SHT31;63191;39.566;2.654;2023-05-14T13:31:01;16.10;92.43
74661;SHT31;63191;39.566;2.654;2023-05-14T13:33:42;16.07;92.13
74661;SHT31;63191;39.566;2.654;2023-05-14T13:36:09;16.22;92.14
74661;SHT31;63191;39.566;2.654;2023-05-14T13:38:37;16.44;92.24
74661;SHT31;63191;39.566;2.654;2023-05-14T13:41:02;16.76;92.46
74661;SHT31;63191;39.566;2.654;2023-05-14T13:43:29;17.06;92.51
74661;SHT31;63191;39.566;2.654;2023-05-14T13:45:57;17.35;92.67
74661;SHT31;63191;39.566;2.654;2023-05-14T13:48:24;17.62;92.85
74661;SHT31;63191;39.566;2.654;2023-05-14T13:50:50;18.02;93.31
74661;SHT31;63191;39.566;2.654;2023-05-14T13:53:16;18.50;93.46
74661;SHT31;63191;39.566;2.654;2023-05-14T13:55:43;19.19;93.10
74661;SHT31;63191;39.566;2.654;2023-05-14T13:58:09;20.30;92.09
74661;SHT31;63191;39.566;2.654;2023-05-14T14:00:35;20.95;91.42
74661;SHT31;63191;39.566;2.654;2023-05-14T14:03:00;22.11;89.30
74661;SHT31;63191;39.566;2.654;2023-05-14T14:05:26;22.72;87.88
74661;SHT31;63191;39.566;2.654;2023-05-14T14:07:55;22.28;88.39
74661;SHT31;63191;39.566;2.654;2023-05-14T14:10:22;21.85;87.82
74661;SHT31;63191;39.566;2.654;2023-05-14T14:12:51;21.37;87.40
74661;SHT31;63191;39.566;2.654;2023-05-14T14:15:17;21.05;87.67
74661;SHT31;63191;39.566;2.654;2023-05-14T14:17:43;20.79;87.91
74661;SHT31;63191;39.566;2.654;2023-05-14T14:20:14;20.59;88.28
74661;SHT31;63191;39.566;2.654;2023-05-14T14:22:42;20.58;88.54
74661;SHT31;63191;39.566;2.654;2023-05-14T14:25:11;20.56;88.75
74661;SHT31;63191;39.566;2.654;2023-05-14T14:27:38;20.46;88.10
74661;SHT31;63191;39.566;2.654;2023-05-14T14:30:08;20.39;87.72
74661;SHT31;63191;39.566;2.654;2023-05-14T14:32:43;20.43;88.12
74661;SHT31;63191;39.566;2.654;2023-05-14T14:35:13;20.51;88.64
74661;SHT31;63191;39.566;2.654;2023-05-14T14:37:40;20.62;88.42
74661;SHT31;63191;39.566;2.654;2023-05-14T14:40:09;20.82;87.60
74661;SHT31;63191;39.566;2.654;2023-05-14T14:42:39;21.01;86.84
74661;SHT31;63191;39.566;2.654;2023-05-14T14:45:04;21.08;86.66
74661;SHT31;63191;39.566;2.654;2023-05-14T14:47:31;21.02;85.68
74661;SHT31;63191;39.566;2.654;2023-05-14T14:49:57;20.97;85.19
74661;SHT31;63191;39.566;2.654;2023-05-14T14:52:23;20.90;84.37
74661;SHT31;63191;39.566;2.654;2023-05-14T14:54:50;20.86;84.34
74661;SHT31;63191;39.566;2.654;2023-05-14T14:57:16;20.95;83.30
74661;SHT31;63191;39.566;2.654;2023-05-14T14:59:42;21.00;81.92
74661;SHT31;63191;39.566;2.654;2023-05-14T15:02:08;21.09;81.18
74661;SHT31;63191;39.566;2.654;2023-05-14T15:04:34;21.05;80.97
74661;SHT31;63191;39.566;2.654;2023-05-14T15:07:02;20.97;81.82
74661;SHT31;63191;39.566;2.654;2023-05-14T15:09:28;20.88;81.28
74661;SHT31;63191;39.566;2.654;2023-05-14T15:11:54;20.86;80.81
74661;SHT31;63191;39.566;2.654;2023-05-14T15:14:19;20.88;78.94
74661;SHT31;63191;39.566;2.654;2023-05-14T15:16:45;20.91;78.31
74661;SHT31;63191;39.566;2.654;2023-05-14T15:19:11;20.91;77.33
74661;SHT31;63191;39.566;2.654;2023-05-14T15:21:37;20.91;76.71
74661;SHT31;63191;39.566;2.654;2023-05-14T15:24:04;20.92;76.07
74661;SHT31;63191;39.566;2.654;2023-05-14T15:26:30;20.90;72.99
74661;SHT31;63191;39.566;2.654;2023-05-14T15:28:56;20.93;71.16
74661;SHT31;63191;39.566;2.654;2023-05-14T15:31:22;20.95;70.49
74661;SHT31;63191;39.566;2.654;2023-05-14T15:33:48;20.92;68.59
74661;SHT31;63191;39.566;2.654;2023-05-14T15:36:16;20.94;68.49
74661;SHT31;63191;39.566;2.654;2023-05-14T15:38:42;21.00;68.73
74661;SHT31;63191;39.566;2.654;2023-05-14T15:41:08;21.02;68.15
74661;SHT31;63191;39.566;2.654;2023-05-14T15:43:34;21.00;66.61
74661;SHT31;63191;39.566;2.654;2023-05-14T15:46:00;21.09;63.74
74661;SHT31;63191;39.566;2.654;2023-05-14T15:48:26;21.19;60.99
74661;SHT31;63191;39.566;2.654;2023-05-14T15:50:52;21.25;60.07
74661;SHT31;63191;39.566;2.654;2023-05-14T15:53:18;21.25;59.11
74661;SHT31;63191;39.566;2.654;2023-05-14T15:55:46;21.30;58.93
74661;SHT31;63191;39.566;2.654;2023-05-14T15:58:12;21.37;58.53
74661;SHT31;63191;39.566;2.654;2023-05-14T16:00:38;21.46;58.30
74661;SHT31;63191;39.566;2.654;2023-05-14T16:03:04;21.55;57.39
74661;SHT31;63191;39.566;2.654;2023-05-14T16:05:30;21.62;56.89
74661;SHT31;63191;39.566;2.654;2023-05-14T16:07:56;21.66;56.33
74661;SHT31;63191;39.566;2.654;2023-05-14T16:10:28;21.68;56.42
74661;SHT31;63191;39.566;2.654;2023-05-14T16:12:54;21.65;56.92
74661;SHT31;63191;39.566;2.654;2023-05-14T16:15:19;21.61;56.92
74661;SHT31;63191;39.566;2.654;2023-05-14T16:17:45;21.59;57.41
74661;SHT31;63191;39.566;2.654;2023-05-14T16:20:11;21.54;59.37
74661;SHT31;63191;39.566;2.654;2023-05-14T16:22:45;21.44;59.92
74661;SHT31;63191;39.566;2.654;2023-05-14T16:25:11;21.32;59.94
74661;SHT31;63191;39.566;2.654;2023-05-14T16:27:37;21.18;60.59